createdAt,value
2022-08-17T00:02:26.233Z,9.93
2022-08-17T00:05:33.178Z,9.63
2022-08-17T00:08:38.043Z,9.47
2022-08-17T00:11:42.758Z,9.60
2022-08-17T00:15:10.424Z,8.53
2022-08-17T00:19:04.185Z,8.37
2022-08-17T00:22:29.498Z,8.87
2022-08-17T00:25:03.331Z,8.40
2022-08-17T00:28:06.106Z,8.63
2022-08-17T00:31:10.865Z,8.43
2022-08-17T00:34:13.462Z,8.73
2022-08-17T00:37:17.432Z,8.87
2022-08-17T00:40:20.968Z,8.73
2022-08-17T00:43:31.753Z,8.97
2022-08-17T00:46:37.063Z,8.67
2022-08-17T00:49:39.605Z,9.13
2022-08-17T00:52:55.543Z,8.70
2022-08-17T00:55:59.900Z,9.00
2022-08-17T00:59:04.928Z,9.20
2022-08-17T01:02:10.632Z,8.80
2022-08-17T01:05:18.608Z,8.40
2022-08-17T01:08:27.085Z,8.57
2022-08-17T01:11:31.950Z,8.10
2022-08-17T01:14:34.571Z,8.10
2022-08-17T01:17:37.183Z,7.77
2022-08-17T01:20:48.646Z,7.77
2022-08-17T01:23:52.915Z,8.47
2022-08-17T01:26:56.583Z,7.73
2022-08-17T01:30:04.501Z,8.27
2022-08-17T01:33:27.112Z,8.77
2022-08-17T01:36:29.776Z,7.93
2022-08-17T01:39:36.604Z,8.30
2022-08-17T01:42:45.795Z,7.63
2022-08-17T01:46:03.794Z,7.93
2022-08-17T01:49:07.965Z,8.33
2022-08-17T01:52:12.994Z,7.97
2022-08-17T01:55:25.895Z,7.60
2022-08-17T01:58:29.938Z,8.20
2022-08-17T02:01:34.602Z,8.40
2022-08-17T02:04:37.307Z,8.00
2022-08-17T02:07:58.642Z,7.60
2022-08-17T02:11:06.297Z,8.20
2022-08-17T02:14:14.893Z,7.90
2022-08-17T02:17:17.503Z,7.93
2022-08-17T02:20:41.513Z,7.80
2022-08-17T02:23:47.422Z,7.50
2022-08-17T02:26:51.611Z,7.87
2022-08-17T02:29:54.221Z,7.57
2022-08-17T02:32:57.357Z,8.10
2022-08-17T02:36:00.104Z,7.83
2022-08-17T02:39:03.896Z,8.23
2022-08-17T02:42:08.018Z,7.70
2022-08-17T02:45:14.666Z,7.80
2022-08-17T02:48:17.287Z,8.17
2022-08-17T02:51:33.544Z,7.97
2022-08-17T02:54:40.471Z,7.90
2022-08-17T02:57:46.228Z,7.90
2022-08-17T03:00:48.902Z,7.27
2022-08-17T03:03:51.574Z,7.80
2022-08-17T03:06:54.197Z,7.20
2022-08-17T03:09:56.822Z,7.50
2022-08-17T03:13:01.630Z,7.70
2022-08-17T03:16:04.666Z,7.30
2022-08-17T03:19:07.256Z,8.00
2022-08-17T03:22:35.939Z,7.67
2022-08-17T03:25:35.123Z,7.80
2022-08-17T03:28:39.543Z,8.13
2022-08-17T03:31:42.159Z,7.97
2022-08-17T03:34:44.795Z,8.20
2022-08-17T03:37:47.826Z,8.20
2022-08-17T03:41:03.227Z,8.27
2022-08-17T03:44:07.233Z,8.60
2022-08-17T03:47:27.146Z,7.50
2022-08-17T03:50:47.320Z,7.73
2022-08-17T03:54:09.957Z,8.33
2022-08-17T03:57:13.262Z,8.57
2022-08-17T04:00:17.756Z,8.30
2022-08-17T04:03:20.304Z,8.47
2022-08-17T04:06:22.922Z,7.83
2022-08-17T04:09:25.555Z,8.53
2022-08-17T04:12:30.793Z,8.63
2022-08-17T04:15:35.098Z,9.40
2022-08-17T04:18:37.742Z,9.83
2022-08-17T04:21:40.437Z,9.50
2022-08-17T04:24:43.019Z,9.63
2022-08-17T04:27:45.615Z,9.20
2022-08-17T04:30:49.595Z,9.27
2022-08-17T04:33:52.331Z,9.50
2022-08-17T04:36:54.944Z,9.00
2022-08-17T04:40:11.528Z,8.67
2022-08-17T04:43:16.371Z,8.90
2022-08-17T04:46:26.071Z,9.50
2022-08-17T04:49:28.796Z,9.17
2022-08-17T04:52:43.466Z,9.40
2022-08-17T04:55:46.777Z,9.40
2022-08-17T04:58:51.364Z,10.00
2022-08-17T05:01:55.642Z,9.83
2022-08-17T05:04:58.278Z,9.17
2022-08-17T05:08:03.525Z,8.87
2022-08-17T05:11:08.235Z,9.20
2022-08-17T05:14:10.863Z,9.27
2022-08-17T05:17:14.970Z,9.43
2022-08-17T05:20:17.795Z,8.30
2022-08-17T05:23:22.676Z,8.83
2022-08-17T05:26:27.410Z,9.00
2022-08-17T05:29:35.575Z,10.00
2022-08-17T05:32:40.478Z,11.23
2022-08-17T05:35:46.907Z,11.60
2022-08-17T05:38:50.523Z,11.57
2022-08-17T05:41:53.092Z,11.57
2022-08-17T05:44:58.856Z,12.23
2022-08-17T05:48:02.900Z,13.10
2022-08-17T05:51:22.586Z,13.40
2022-08-17T05:54:35.246Z,13.67
2022-08-17T05:57:52.940Z,13.23
2022-08-17T06:01:04.351Z,12.60
2022-08-17T06:04:17.462Z,13.77
2022-08-17T06:07:26.408Z,12.90
2022-08-17T06:10:36.031Z,13.47
2022-08-17T06:13:57.561Z,13.03
2022-08-17T06:17:04.171Z,13.13
2022-08-17T06:20:12.243Z,13.87
2022-08-17T06:23:21.596Z,13.83
2022-08-17T06:26:30.294Z,13.27
2022-08-17T06:29:50.822Z,13.77
2022-08-17T06:32:56.549Z,12.60
2022-08-17T06:36:11.271Z,13.20
2022-08-17T06:39:31.264Z,13.10
2022-08-17T06:43:04.966Z,12.23
2022-08-17T06:46:11.331Z,12.73
2022-08-17T06:49:19.793Z,12.45
2022-08-17T06:52:42.216Z,12.68
2022-08-17T06:55:58.006Z,11.70
2022-08-17T06:59:02.280Z,11.55
2022-08-17T07:02:09.549Z,11.30
2022-08-17T07:05:14.188Z,10.77
2022-08-17T07:08:29.342Z,10.07
2022-08-17T07:11:39.423Z,10.40
2022-08-17T07:14:51.666Z,10.55
2022-08-17T07:17:54.362Z,9.32
2022-08-17T07:21:03.698Z,9.68
2022-08-17T07:24:30.254Z,9.65
2022-08-17T07:27:38.797Z,10.13
2022-08-17T07:30:48.875Z,9.32
2022-08-17T07:34:06.701Z,8.85
2022-08-17T07:37:09.302Z,8.20
2022-08-17T07:40:29.851Z,7.93
2022-08-17T07:43:34.884Z,8.48
2022-08-17T07:47:09.669Z,8.07
2022-08-17T07:50:27.109Z,8.07
2022-08-17T07:53:31.157Z,8.13
2022-08-17T07:56:40.993Z,7.93
2022-08-17T08:00:04.048Z,8.13
2022-08-17T08:03:27.010Z,7.90
2022-08-17T08:06:29.762Z,7.22
2022-08-17T08:09:39.482Z,7.60
2022-08-17T08:12:44.883Z,7.18
2022-08-17T08:15:53.557Z,7.40
2022-08-17T08:18:59.290Z,7.30
2022-08-17T08:22:11.061Z,6.82
2022-08-17T08:25:25.925Z,7.03
2022-08-17T08:28:43.328Z,6.50
2022-08-17T08:32:00.010Z,6.65
2022-08-17T08:35:07.274Z,6.57
2022-08-17T08:38:18.207Z,6.35
2022-08-17T08:41:34.554Z,6.28
2022-08-17T08:45:00.413Z,6.28
2022-08-17T08:48:45.962Z,6.50
2022-08-17T08:51:51.729Z,5.65
2022-08-17T08:54:59.666Z,5.95
2022-08-17T08:58:07.463Z,6.25
2022-08-17T09:01:38.025Z,5.75
2022-08-17T09:05:13.962Z,5.20
2022-08-17T09:08:22.006Z,5.20
2022-08-17T09:11:31.745Z,4.88
2022-08-17T09:14:46.824Z,4.85
2022-08-17T09:18:14.911Z,4.65
2022-08-17T09:21:29.667Z,4.40
2022-08-17T09:24:41.646Z,4.78
2022-08-17T09:27:54.725Z,4.50
2022-08-17T09:31:03.509Z,4.55
2022-08-17T09:34:12.325Z,4.03
2022-08-17T09:37:22.710Z,4.30
2022-08-17T09:40:29.763Z,4.70
2022-08-17T09:43:39.805Z,4.07
2022-08-17T09:46:49.174Z,4.20
2022-08-17T09:49:58.602Z,4.25
2022-08-17T09:53:01.307Z,4.30
2022-08-17T09:56:32.455Z,4.22
2022-08-17T09:59:54.278Z,4.05
2022-08-17T10:03:25.656Z,4.38
2022-08-17T10:06:33.678Z,4.40
2022-08-17T10:09:47.430Z,4.10
2022-08-17T10:12:58.514Z,4.60
2022-08-17T10:16:14.647Z,4.35
2022-08-17T10:19:24.019Z,5.00
2022-08-17T10:22:53.356Z,4.40
2022-08-17T10:26:14.021Z,4.53
2022-08-17T10:29:23.527Z,4.53
2022-08-17T10:32:34.618Z,4.72
2022-08-17T10:35:47.452Z,4.65
2022-08-17T10:39:04.018Z,5.53
2022-08-17T10:42:32.232Z,4.53
2022-08-17T10:45:46.968Z,4.80
2022-08-17T10:49:26.889Z,4.40
2022-08-17T10:52:49.912Z,4.90
2022-08-17T10:56:23.174Z,4.70
2022-08-17T10:59:50.653Z,4.40
2022-08-17T11:02:55.403Z,4.60
2022-08-17T11:06:06.433Z,4.25
2022-08-17T11:09:27.876Z,4.68
2022-08-17T11:12:42.488Z,4.35
2022-08-17T11:16:09.683Z,4.80
2022-08-17T11:19:41.220Z,4.97
2022-08-17T11:23:14.609Z,4.55
2022-08-17T11:26:26.390Z,4.50
2022-08-17T11:29:36.705Z,4.13
2022-08-17T11:32:47.337Z,4.43
2022-08-17T11:35:56.265Z,4.80
2022-08-17T11:39:05.430Z,4.10
2022-08-17T11:42:21.372Z,4.18
2022-08-17T11:45:43.072Z,4.32
2022-08-17T11:49:15.236Z,4.25
2022-08-17T11:52:39.303Z,4.57
2022-08-17T11:56:05.494Z,4.53
2022-08-17T11:59:45.875Z,4.32
2022-08-17T12:03:26.357Z,4.20
2022-08-17T12:06:35.306Z,4.82
2022-08-17T12:09:42.145Z,4.85
2022-08-17T12:12:49.075Z,4.45
2022-08-17T12:15:54.034Z,4.50
2022-08-17T12:18:59.605Z,4.43
2022-08-17T12:22:10.719Z,4.20
2022-08-17T12:25:21.654Z,4.63
2022-08-17T12:28:27.738Z,4.22
2022-08-17T12:31:34.593Z,4.03
2022-08-17T12:34:42.260Z,4.47
2022-08-17T12:37:48.738Z,4.40
2022-08-17T12:40:55.021Z,4.40
2022-08-17T12:44:02.760Z,4.28
2022-08-17T12:47:19.377Z,4.20
2022-08-17T12:50:29.913Z,4.13
2022-08-17T12:53:35.823Z,4.30
2022-08-17T12:56:38.447Z,4.10
2022-08-17T12:59:43.934Z,4.20
2022-08-17T13:02:50.829Z,4.80
2022-08-17T13:06:00.877Z,4.32
2022-08-17T13:09:10.731Z,4.20
2022-08-17T13:12:13.292Z,4.43
2022-08-17T13:15:23.042Z,4.50
2022-08-17T13:18:47.274Z,4.70
2022-08-17T13:21:54.062Z,5.15
2022-08-17T13:25:00.926Z,4.22
2022-08-17T13:28:03.694Z,4.55
2022-08-17T13:31:32.564Z,4.45
2022-08-17T13:35:07.743Z,4.75
2022-08-17T13:38:06.810Z,4.20
2022-08-17T13:41:29.507Z,4.47
2022-08-17T13:44:34.966Z,4.43
2022-08-17T13:47:37.599Z,4.45
2022-08-17T13:50:43.246Z,4.10
2022-08-17T13:53:55.748Z,4.30
2022-08-17T13:57:01.865Z,4.20
2022-08-17T14:00:11.766Z,4.07
2022-08-17T14:03:15.234Z,4.38
2022-08-17T14:06:51.507Z,4.43
2022-08-17T14:09:47.683Z,4.05
2022-08-17T14:12:50.814Z,4.05
2022-08-17T14:15:55.024Z,4.25
2022-08-17T14:18:59.041Z,3.97
2022-08-17T14:22:01.827Z,4.40
2022-08-17T14:25:10.272Z,4.25
2022-08-17T14:28:13.416Z,4.60
2022-08-17T14:31:16.052Z,4.35
2022-08-17T14:34:18.817Z,4.45
2022-08-17T14:37:25.346Z,4.40
2022-08-17T14:40:29.492Z,4.03
2022-08-17T14:43:34.997Z,4.10
2022-08-17T14:46:37.731Z,4.60
2022-08-17T14:49:40.294Z,4.22
2022-08-17T14:52:43.492Z,4.15
2022-08-17T14:55:47.459Z,4.43
2022-08-17T14:58:51.798Z,3.85
2022-08-17T15:01:56.973Z,4.32
2022-08-17T15:05:01.662Z,4.05
2022-08-17T15:08:05.759Z,4.18
2022-08-17T15:11:14.191Z,4.30
2022-08-17T15:14:17.253Z,3.50
2022-08-17T15:17:19.831Z,4.32
2022-08-17T15:20:24.666Z,4.38
2022-08-17T15:23:27.882Z,4.40
2022-08-17T15:26:32.071Z,4.10
2022-08-17T15:29:34.671Z,4.78
2022-08-17T15:32:40.507Z,4.70
2022-08-17T15:35:43.626Z,5.53
2022-08-17T15:38:47.212Z,6.22
2022-08-17T15:41:58.729Z,7.07
2022-08-17T15:45:06.750Z,5.15
2022-08-17T15:48:09.934Z,4.30
2022-08-17T15:51:14.742Z,24.85
2022-08-17T15:54:22.333Z,9.98
2022-08-17T15:57:27.507Z,5.28
2022-08-17T16:00:30.517Z,7.80
2022-08-17T16:04:01.376Z,10.48
2022-08-17T16:07:01.492Z,10.48
2022-08-17T16:10:06.128Z,9.02
2022-08-17T16:13:17.777Z,9.10
2022-08-17T16:16:20.847Z,6.68
2022-08-17T16:19:23.452Z,9.38
2022-08-17T16:22:32.558Z,7.20
2022-08-17T16:25:49.226Z,10.45
2022-08-17T16:28:58.033Z,9.30
2022-08-17T16:32:12.782Z,8.13
2022-08-17T16:35:18.025Z,6.70
2022-08-17T16:38:20.893Z,7.00
2022-08-17T16:41:45.054Z,9.07
2022-08-17T16:44:49.218Z,6.78
2022-08-17T16:47:52.268Z,6.95
2022-08-17T16:51:03.419Z,7.93
2022-08-17T16:54:08.149Z,7.35
2022-08-17T16:57:11.073Z,6.15
2022-08-17T17:00:19.366Z,6.70
2022-08-17T17:03:27.012Z,5.88
2022-08-17T17:06:44.979Z,6.35
2022-08-17T17:09:48.974Z,5.60
2022-08-17T17:13:03.059Z,6.57
2022-08-17T17:16:18.462Z,5.88
2022-08-17T17:19:34.519Z,5.90
2022-08-17T17:22:47.114Z,7.35
2022-08-17T17:25:58.348Z,9.75
2022-08-17T17:29:16.242Z,6.97
2022-08-17T17:32:25.862Z,5.55
2022-08-17T17:35:33.694Z,6.35
2022-08-17T17:38:43.909Z,5.65
2022-08-17T17:41:49.936Z,5.70
2022-08-17T17:45:00.042Z,6.57
2022-08-17T17:48:04.479Z,5.80
2022-08-17T17:52:08.500Z,5.93
2022-08-17T17:54:55.099Z,5.88
2022-08-17T17:58:07.866Z,5.82
2022-08-17T18:01:31.409Z,6.38
2022-08-17T18:04:45.901Z,6.28
2022-08-17T18:07:56.451Z,6.53
2022-08-17T18:11:08.448Z,6.50
2022-08-17T18:14:24.335Z,6.13
2022-08-17T18:17:30.949Z,6.03
2022-08-17T18:20:46.684Z,5.60
2022-08-17T18:24:00.556Z,6.10
2022-08-17T18:27:08.599Z,5.70
2022-08-17T18:30:27.358Z,5.00
2022-08-17T18:33:30.072Z,4.43
2022-08-17T18:36:37.262Z,7.47
2022-08-17T18:39:40.053Z,5.88
2022-08-17T18:42:45.705Z,3.90
2022-08-17T18:45:50.351Z,5.55
2022-08-17T18:48:58.970Z,6.50
2022-08-17T18:52:14.111Z,5.03
2022-08-17T18:55:22.380Z,11.25
2022-08-17T18:58:26.623Z,5.63
2022-08-17T19:01:52.150Z,7.05
2022-08-17T19:05:07.223Z,4.95
2022-08-17T19:08:21.747Z,4.55
2022-08-17T19:11:30.021Z,5.43
2022-08-17T19:14:33.465Z,8.18
2022-08-17T19:17:43.763Z,5.30
2022-08-17T19:20:54.793Z,4.50
2022-08-17T19:24:05.911Z,6.38
2022-08-17T19:27:15.091Z,6.30
2022-08-17T19:30:21.253Z,5.50
2022-08-17T19:33:24.074Z,5.73
2022-08-17T19:36:36.888Z,6.10
2022-08-17T19:39:51.448Z,5.20
2022-08-17T19:43:03.591Z,5.15
2022-08-17T19:46:17.787Z,4.88
2022-08-17T19:49:41.415Z,5.33
2022-08-17T19:52:52.726Z,5.00
2022-08-17T19:56:04.214Z,4.70
2022-08-17T19:59:14.249Z,5.05
2022-08-17T20:02:27.359Z,5.60
2022-08-17T20:05:44.411Z,5.00
2022-08-17T20:09:00.231Z,5.03
2022-08-17T20:12:09.392Z,5.27
2022-08-17T20:15:26.166Z,5.20
2022-08-17T20:18:36.217Z,5.80
2022-08-17T20:21:46.205Z,5.37
2022-08-17T20:24:55.197Z,5.30
2022-08-17T20:28:05.887Z,6.72
2022-08-17T20:31:42.042Z,4.90
2022-08-17T20:34:47.977Z,4.87
2022-08-17T20:37:57.640Z,4.70
2022-08-17T20:41:12.424Z,4.83
2022-08-17T20:44:33.834Z,4.73
2022-08-17T20:48:07.416Z,4.60
2022-08-17T20:51:20.047Z,5.03
2022-08-17T20:54:46.027Z,5.03
2022-08-17T20:57:49.318Z,4.63
2022-08-17T21:01:12.007Z,5.50
2022-08-17T21:04:47.338Z,4.57
2022-08-17T21:07:57.883Z,4.60
2022-08-17T21:11:02.443Z,4.57
2022-08-17T21:14:10.119Z,4.53
2022-08-17T21:17:31.023Z,4.47
2022-08-17T21:20:45.759Z,4.43
2022-08-17T21:24:03.700Z,5.03
2022-08-17T21:27:21.395Z,4.67
2022-08-17T21:30:47.491Z,4.27
2022-08-17T21:34:24.704Z,4.23
2022-08-17T21:37:32.690Z,4.03
2022-08-17T21:40:35.511Z,4.50
2022-08-17T21:43:49.710Z,4.77
2022-08-17T21:46:54.175Z,4.60
2022-08-17T21:50:16.019Z,4.40
2022-08-17T21:53:29.385Z,4.97
2022-08-17T21:56:39.630Z,4.83
2022-08-17T21:59:44.115Z,4.57
2022-08-17T22:02:55.764Z,4.57
2022-08-17T22:05:59.751Z,4.10
2022-08-17T22:09:19.221Z,4.00
2022-08-17T22:12:24.134Z,4.23
2022-08-17T22:15:26.782Z,4.20
2022-08-17T22:18:30.058Z,4.50
2022-08-17T22:21:34.010Z,4.23
2022-08-17T22:24:37.707Z,4.30
2022-08-17T22:27:49.917Z,3.97
2022-08-17T22:31:03.425Z,3.90
2022-08-17T22:34:15.198Z,4.07
2022-08-17T22:37:28.764Z,4.13
2022-08-17T22:40:34.379Z,3.90
2022-08-17T22:43:43.657Z,3.97
2022-08-17T22:46:56.240Z,4.10
2022-08-17T22:50:01.109Z,4.30
2022-08-17T22:53:33.888Z,4.60
2022-08-17T22:56:54.696Z,3.87
2022-08-17T22:59:57.977Z,4.17
2022-08-17T23:03:11.378Z,4.70
2022-08-17T23:06:14.001Z,4.07
2022-08-17T23:09:17.961Z,3.93
2022-08-17T23:12:26.318Z,3.83
2022-08-17T23:15:33.860Z,4.30
2022-08-17T23:18:37.330Z,3.83
2022-08-17T23:21:40.428Z,4.10
2022-08-17T23:24:48.910Z,4.10
2022-08-17T23:27:51.597Z,3.57
2022-08-17T23:30:54.312Z,4.37
2022-08-17T23:33:57.628Z,4.40
2022-08-17T23:37:04.197Z,3.83
2022-08-17T23:40:09.620Z,4.00
2022-08-17T23:43:24.878Z,4.30
2022-08-17T23:46:28.099Z,4.03
2022-08-17T23:49:31.275Z,4.30
2022-08-17T23:52:37.774Z,4.47
2022-08-17T23:55:41.701Z,4.37
2022-08-17T23:58:44.989Z,4.70
